createdAt,value
2023-02-03T00:00:17.093Z,-0.58
2023-02-03T00:03:05.333Z,-0.60
2023-02-03T00:05:34.953Z,-0.63
2023-02-03T00:08:04.600Z,-0.64
2023-02-03T00:10:35.204Z,-0.74
2023-02-03T00:13:03.112Z,-0.73
2023-02-03T00:15:31.545Z,-0.77
2023-02-03T00:17:59.280Z,-0.75
2023-02-03T00:20:28.018Z,-0.80
2023-02-03T00:22:56.077Z,-0.83
2023-02-03T00:25:24.347Z,-0.85
2023-02-03T00:27:52.146Z,-0.84
2023-02-03T00:30:20.403Z,-0.84
2023-02-03T00:32:48.152Z,-0.87
2023-02-03T00:35:16.585Z,-0.97
2023-02-03T00:37:44.584Z,-1.01
2023-02-03T00:40:13.966Z,-0.97
2023-02-03T00:42:41.675Z,-1.02
2023-02-03T00:45:10.248Z,-1.02
2023-02-03T00:47:38.043Z,-1.02
2023-02-03T00:50:07.624Z,-1.05
2023-02-03T00:52:36.463Z,-1.03
2023-02-03T00:55:05.997Z,-1.09
2023-02-03T00:57:33.787Z,-1.04
2023-02-03T01:00:02.101Z,-1.05
2023-02-03T01:02:29.868Z,-0.95
2023-02-03T01:04:58.449Z,-0.94
2023-02-03T01:07:27.235Z,-0.88
2023-02-03T01:09:55.591Z,-0.80
2023-02-03T01:12:23.545Z,-0.79
2023-02-03T01:14:51.865Z,-0.81
2023-02-03T01:17:19.640Z,-0.75
2023-02-03T01:19:48.285Z,-0.74
2023-02-03T01:22:17.928Z,-0.72
2023-02-03T01:24:45.963Z,-0.72
2023-02-03T01:27:14.050Z,-0.66
2023-02-03T01:29:42.307Z,-0.67
2023-02-03T01:32:10.177Z,-0.71
2023-02-03T01:34:38.612Z,-0.66
2023-02-03T01:37:07.728Z,-0.64
2023-02-03T01:39:36.655Z,-0.64
2023-02-03T01:42:04.483Z,-0.73
2023-02-03T01:44:39.567Z,-0.69
2023-02-03T01:47:18.216Z,-0.65
2023-02-03T01:49:52.489Z,-0.77
2023-02-03T01:52:20.344Z,-0.71
2023-02-03T01:54:51.270Z,-0.70
2023-02-03T01:57:35.278Z,-0.76
2023-02-03T02:00:05.818Z,-0.77
2023-02-03T02:02:43.498Z,-0.79
2023-02-03T02:05:30.501Z,-0.85
2023-02-03T02:08:00.221Z,-0.81
2023-02-03T02:10:30.774Z,-0.81
2023-02-03T02:12:59.597Z,-0.82
2023-02-03T02:15:50.378Z,-0.86
2023-02-03T02:18:48.882Z,-0.90
2023-02-03T02:21:41.395Z,-0.93
2023-02-03T02:24:46.754Z,-0.95
2023-02-03T02:27:40.440Z,-1.01
2023-02-03T02:30:28.930Z,-1.09
2023-02-03T02:33:10.349Z,-1.18
2023-02-03T02:36:15.812Z,-1.23
2023-02-03T02:39:16.672Z,-1.24
2023-02-03T02:41:53.011Z,-1.29
2023-02-03T02:44:29.722Z,-1.37
2023-02-03T02:46:59.978Z,-1.43
2023-02-03T02:49:54.347Z,-1.49
2023-02-03T02:52:23.133Z,-1.53
2023-02-03T02:54:55.201Z,-1.63
2023-02-03T02:57:27.619Z,-1.65
2023-02-03T02:59:56.838Z,-1.66
2023-02-03T03:02:34.289Z,-1.71
2023-02-03T03:05:06.832Z,-1.74
2023-02-03T03:07:49.376Z,-1.74
2023-02-03T03:10:22.423Z,-1.76
2023-02-03T03:12:54.805Z,-1.75
2023-02-03T03:15:29.022Z,-1.78
2023-02-03T03:18:06.542Z,-1.87
2023-02-03T03:20:36.139Z,-1.93
2023-02-03T03:23:06.827Z,-1.95
2023-02-03T03:25:47.512Z,-1.95
2023-02-03T03:28:26.841Z,-2.04
2023-02-03T03:30:55.452Z,-2.08
2023-02-03T03:33:24.015Z,-2.10
2023-02-03T03:36:24.393Z,-2.17
2023-02-03T03:39:06.656Z,-2.12
2023-02-03T03:41:52.339Z,-2.13
2023-02-03T03:44:22.439Z,-2.16
2023-02-03T03:46:56.563Z,-2.16
2023-02-03T03:49:25.798Z,-2.16
2023-02-03T03:51:58.400Z,-2.19
2023-02-03T03:54:26.862Z,-2.20
2023-02-03T03:57:06.431Z,-2.18
2023-02-03T03:59:37.816Z,-2.25
2023-02-03T04:02:05.934Z,-2.27
2023-02-03T04:04:37.148Z,-2.24
2023-02-03T04:07:05.177Z,-2.25
2023-02-03T04:09:36.660Z,-2.30
2023-02-03T04:12:07.055Z,-2.30
2023-02-03T04:14:40.904Z,-2.38
2023-02-03T04:17:09.323Z,-2.49
2023-02-03T04:19:37.102Z,-2.39
2023-02-03T04:22:06.816Z,-2.40
2023-02-03T04:24:34.745Z,-2.42
2023-02-03T04:27:05.184Z,-2.45
2023-02-03T04:29:33.422Z,-2.46
2023-02-03T04:32:01.399Z,-2.46
2023-02-03T04:34:29.325Z,-2.50
2023-02-03T04:36:57.589Z,-2.51
2023-02-03T04:39:25.353Z,-2.56
2023-02-03T04:41:53.461Z,-2.56
2023-02-03T04:44:20.986Z,-2.60
2023-02-03T04:46:49.320Z,-2.63
2023-02-03T04:49:17.870Z,-2.64
2023-02-03T04:51:46.001Z,-2.63
2023-02-03T04:54:13.700Z,-2.68
2023-02-03T04:56:42.336Z,-2.69
2023-02-03T04:59:10.111Z,-2.71
2023-02-03T05:01:38.503Z,-2.72
2023-02-03T05:04:06.334Z,-2.75
2023-02-03T05:06:34.874Z,-2.74
2023-02-03T05:09:02.916Z,-2.77
2023-02-03T05:11:31.307Z,-2.66
2023-02-03T05:13:59.352Z,-2.78
2023-02-03T05:16:28.073Z,-2.84
2023-02-03T05:18:55.940Z,-2.73
2023-02-03T05:21:24.552Z,-2.78
2023-02-03T05:23:52.363Z,-2.76
2023-02-03T05:26:20.772Z,-2.81
2023-02-03T05:28:50.559Z,-2.80
2023-02-03T05:31:19.135Z,-2.84
2023-02-03T05:33:47.073Z,-2.84
2023-02-03T05:36:15.304Z,-2.81
2023-02-03T05:38:43.720Z,-2.85
2023-02-03T05:41:31.620Z,-2.80
2023-02-03T05:43:59.668Z,-2.85
2023-02-03T05:46:27.662Z,-2.84
2023-02-03T05:48:55.413Z,-2.87
2023-02-03T05:51:23.474Z,-2.95
2023-02-03T05:53:51.341Z,-2.93
2023-02-03T05:56:19.851Z,-2.95
2023-02-03T05:58:47.597Z,-2.92
2023-02-03T06:01:16.037Z,-2.92
2023-02-03T06:03:46.041Z,-2.93
2023-02-03T06:06:14.891Z,-2.94
2023-02-03T06:08:43.342Z,-2.92
2023-02-03T06:11:12.142Z,-2.93
2023-02-03T06:13:40.224Z,-2.90
2023-02-03T06:16:08.890Z,-2.91
2023-02-03T06:18:36.648Z,-2.86
2023-02-03T06:21:06.675Z,-2.86
2023-02-03T06:23:35.000Z,-2.82
2023-02-03T06:26:03.410Z,-2.79
2023-02-03T06:28:34.008Z,-2.79
2023-02-03T06:31:02.770Z,-2.82
2023-02-03T06:33:31.506Z,-2.80
2023-02-03T06:36:00.228Z,-2.79
2023-02-03T06:38:28.592Z,-2.77
2023-02-03T06:40:56.591Z,-2.75
2023-02-03T06:43:24.449Z,-2.72
2023-02-03T06:45:53.376Z,-2.68
2023-02-03T06:48:20.944Z,-2.68
2023-02-03T06:50:49.429Z,-2.65
2023-02-03T06:53:23.512Z,-2.60
2023-02-03T06:55:53.595Z,-2.54
2023-02-03T06:58:21.519Z,-2.52
2023-02-03T07:00:49.785Z,-2.49
2023-02-03T07:03:17.479Z,-2.43
2023-02-03T07:05:46.130Z,-2.39
2023-02-03T07:08:13.920Z,-2.39
2023-02-03T07:10:42.643Z,-2.35
2023-02-03T07:13:10.421Z,-2.27
2023-02-03T07:15:40.804Z,-2.24
2023-02-03T07:18:10.047Z,-2.20
2023-02-03T07:20:38.338Z,-2.14
2023-02-03T07:23:06.225Z,-2.15
2023-02-03T07:25:34.443Z,-2.03
2023-02-03T07:28:02.188Z,-1.93
2023-02-03T07:30:30.972Z,-1.89
2023-02-03T07:32:59.323Z,-1.82
2023-02-03T07:35:27.803Z,-1.75
2023-02-03T07:37:55.612Z,-1.71
2023-02-03T07:40:23.660Z,-1.63
2023-02-03T07:42:51.822Z,-1.54
2023-02-03T07:45:20.493Z,-1.50
2023-02-03T07:47:48.976Z,-1.41
2023-02-03T07:50:17.689Z,-1.40
2023-02-03T07:52:45.465Z,-1.36
2023-02-03T07:55:13.562Z,-1.28
2023-02-03T07:57:43.881Z,-1.22
2023-02-03T08:00:15.073Z,-1.14
2023-02-03T08:02:44.010Z,-1.09
2023-02-03T08:05:13.598Z,-0.98
2023-02-03T08:07:41.740Z,-0.90
2023-02-03T08:10:11.272Z,-0.91
2023-02-03T08:12:39.494Z,-0.80
2023-02-03T08:15:08.543Z,-0.73
2023-02-03T08:17:36.341Z,-0.64
2023-02-03T08:20:04.912Z,-0.55
2023-02-03T08:22:32.668Z,-0.45
2023-02-03T08:25:00.965Z,-0.41
2023-02-03T08:27:28.967Z,-0.25
2023-02-03T08:29:57.249Z,-0.10
2023-02-03T08:32:25.189Z,-0.24
2023-02-03T08:34:54.531Z,-0.14
2023-02-03T08:37:27.166Z,-0.15
2023-02-03T08:39:55.135Z,-0.03
2023-02-03T08:42:22.962Z,-0.01
2023-02-03T08:44:51.586Z,0.06
2023-02-03T08:47:19.312Z,0.04
2023-02-03T08:49:47.478Z,0.15
2023-02-03T08:52:18.054Z,0.23
2023-02-03T08:54:47.844Z,0.20
2023-02-03T08:57:16.241Z,0.17
2023-02-03T08:59:45.306Z,0.30
2023-02-03T09:02:18.732Z,0.33
2023-02-03T09:04:47.799Z,0.39
2023-02-03T09:07:15.914Z,0.45
2023-02-03T09:09:44.521Z,0.54
2023-02-03T09:12:13.299Z,0.43
2023-02-03T09:14:41.851Z,0.33
2023-02-03T09:17:10.591Z,0.44
2023-02-03T09:19:39.536Z,0.48
2023-02-03T09:22:07.873Z,0.66
2023-02-03T09:24:36.149Z,0.74
2023-02-03T09:27:03.947Z,0.79
2023-02-03T09:29:32.536Z,0.85
2023-02-03T09:32:00.723Z,0.93
2023-02-03T09:34:29.360Z,0.98
2023-02-03T09:36:57.275Z,1.07
2023-02-03T09:39:25.627Z,1.04
2023-02-03T09:42:38.685Z,1.05
2023-02-03T09:45:25.924Z,1.24
2023-02-03T09:47:55.668Z,1.38
2023-02-03T09:50:29.618Z,1.44
2023-02-03T09:52:58.214Z,1.31
2023-02-03T09:55:31.281Z,1.31
2023-02-03T09:58:04.962Z,1.15
2023-02-03T10:00:37.338Z,1.14
2023-02-03T10:03:14.797Z,1.03
2023-02-03T10:05:50.329Z,0.89
2023-02-03T10:08:55.365Z,0.87
2023-02-03T10:11:47.145Z,0.89
2023-02-03T10:14:33.975Z,0.88
2023-02-03T10:17:39.931Z,0.76
2023-02-03T10:20:17.433Z,0.59
2023-02-03T10:22:57.784Z,0.64
2023-02-03T10:25:31.711Z,0.63
2023-02-03T10:28:02.818Z,0.66
2023-02-03T10:30:34.802Z,0.63
2023-02-03T10:33:11.480Z,0.66
2023-02-03T10:35:50.902Z,0.82
2023-02-03T10:38:35.523Z,0.80
2023-02-03T10:41:04.272Z,0.83
2023-02-03T10:43:51.460Z,0.85
2023-02-03T10:46:27.202Z,0.95
2023-02-03T10:48:56.535Z,0.91
2023-02-03T10:51:37.006Z,0.91
2023-02-03T10:54:05.623Z,0.80
2023-02-03T10:56:37.319Z,0.87
2023-02-03T10:59:07.768Z,0.93
2023-02-03T11:01:45.493Z,0.97
2023-02-03T11:04:32.828Z,1.03
2023-02-03T11:07:07.230Z,1.01
2023-02-03T11:09:40.626Z,1.01
2023-02-03T11:12:14.795Z,1.10
2023-02-03T11:14:45.778Z,1.06
2023-02-03T11:17:23.362Z,0.99
2023-02-03T11:19:54.107Z,0.93
2023-02-03T11:22:39.388Z,0.89
2023-02-03T11:25:21.814Z,0.95
2023-02-03T11:27:50.000Z,0.91
2023-02-03T11:30:24.505Z,1.01
2023-02-03T11:32:53.283Z,1.01
2023-02-03T11:35:24.360Z,1.04
2023-02-03T11:37:54.597Z,1.04
2023-02-03T11:40:38.919Z,1.16
2023-02-03T11:43:16.700Z,1.11
2023-02-03T11:45:53.944Z,1.06
2023-02-03T11:48:36.283Z,0.97
2023-02-03T11:51:35.872Z,0.90
2023-02-03T11:54:21.092Z,0.89
2023-02-03T11:57:11.053Z,0.88
2023-02-03T11:59:47.589Z,0.65
2023-02-03T12:02:48.319Z,0.73
2023-02-03T12:05:41.119Z,0.72
2023-02-03T12:08:28.475Z,0.79
2023-02-03T12:11:14.983Z,0.84
2023-02-03T12:14:12.782Z,0.93
2023-02-03T12:16:56.521Z,0.84
2023-02-03T12:19:47.037Z,0.91
2023-02-03T12:22:33.238Z,0.97
2023-02-03T12:25:04.569Z,0.84
2023-02-03T12:27:45.059Z,0.88
2023-02-03T12:30:17.534Z,0.83
2023-02-03T12:32:52.977Z,0.81
2023-02-03T12:36:06.226Z,0.78
2023-02-03T12:38:46.881Z,0.78
2023-02-03T12:41:18.866Z,0.74
2023-02-03T12:43:49.678Z,0.79
2023-02-03T12:46:20.917Z,0.72
2023-02-03T12:49:00.555Z,0.66
2023-02-03T12:51:49.875Z,0.63
2023-02-03T12:54:26.681Z,0.63
2023-02-03T12:56:56.103Z,0.59
2023-02-03T12:59:25.674Z,0.65
2023-02-03T13:02:18.248Z,0.55
2023-02-03T13:04:55.984Z,0.47
2023-02-03T13:07:30.994Z,0.33
2023-02-03T13:10:26.738Z,0.29
2023-02-03T13:12:59.087Z,0.31
2023-02-03T13:15:29.924Z,0.15
2023-02-03T13:18:11.291Z,0.08
2023-02-03T13:20:39.110Z,-0.04
2023-02-03T13:23:12.625Z,-0.15
2023-02-03T13:25:51.829Z,-0.24
2023-02-03T13:28:38.450Z,-0.32
2023-02-03T13:31:16.163Z,-0.35
2023-02-03T13:34:15.900Z,-0.40
2023-02-03T13:37:23.539Z,-0.49
2023-02-03T13:40:29.583Z,-0.64
2023-02-03T13:43:06.536Z,-0.63
2023-02-03T13:45:43.636Z,-0.70
2023-02-03T13:48:25.513Z,-0.68
2023-02-03T13:51:21.098Z,-0.72
2023-02-03T13:53:50.480Z,-0.80
2023-02-03T13:56:22.105Z,-0.88
2023-02-03T13:59:14.549Z,-0.91
2023-02-03T14:01:44.002Z,-0.90
2023-02-03T14:04:32.202Z,-0.98
2023-02-03T14:07:04.885Z,-1.00
2023-02-03T14:09:34.539Z,-1.00
2023-02-03T14:12:22.754Z,-0.96
2023-02-03T14:14:53.632Z,-1.01
2023-02-03T14:17:43.369Z,-1.05
2023-02-03T14:20:39.250Z,-1.08
2023-02-03T14:23:32.258Z,-1.19
2023-02-03T14:26:01.096Z,-1.17
2023-02-03T14:28:40.413Z,-1.22
2023-02-03T14:32:07.538Z,-1.23
2023-02-03T14:35:41.499Z,-1.24
2023-02-03T14:38:12.310Z,-1.28
2023-02-03T14:40:52.822Z,-1.30
2023-02-03T14:43:39.848Z,-1.27
2023-02-03T14:46:11.229Z,-1.24
2023-02-03T14:49:16.299Z,-1.23
2023-02-03T14:51:52.282Z,-1.26
2023-02-03T14:54:50.563Z,-1.34
2023-02-03T14:57:24.906Z,-1.27
2023-02-03T15:00:06.443Z,-1.33
2023-02-03T15:02:35.359Z,-1.35
2023-02-03T15:05:24.529Z,-1.33
2023-02-03T15:07:53.093Z,-1.35
2023-02-03T15:10:26.967Z,-1.36
2023-02-03T15:12:59.339Z,-1.30
2023-02-03T15:15:31.728Z,-1.37
2023-02-03T15:18:01.525Z,-1.34
2023-02-03T15:20:34.530Z,-1.35
2023-02-03T15:23:03.898Z,-1.35
2023-02-03T15:25:33.582Z,-1.34
2023-02-03T15:28:19.856Z,-1.36
2023-02-03T15:30:54.140Z,-1.50
2023-02-03T15:33:23.110Z,-1.35
2023-02-03T15:35:57.712Z,-1.36
2023-02-03T15:38:36.587Z,-1.35
2023-02-03T15:41:07.953Z,-1.36
2023-02-03T15:43:38.566Z,-1.34
2023-02-03T15:46:13.509Z,-1.42
2023-02-03T15:48:47.337Z,-1.42
2023-02-03T15:51:21.582Z,-1.44
2023-02-03T15:54:12.617Z,-1.40
2023-02-03T15:56:44.473Z,-1.44
2023-02-03T15:59:25.980Z,-1.47
2023-02-03T16:01:53.919Z,-1.58
2023-02-03T16:04:23.032Z,-1.47
2023-02-03T16:06:51.903Z,-1.50
2023-02-03T16:09:34.725Z,-1.49
2023-02-03T16:12:32.622Z,-1.50
2023-02-03T16:15:02.556Z,-1.47
2023-02-03T16:17:36.958Z,-1.46
2023-02-03T16:20:28.848Z,-1.49
2023-02-03T16:23:03.834Z,-1.51
2023-02-03T16:25:34.409Z,-1.49
2023-02-03T16:28:29.868Z,-1.44
2023-02-03T16:31:21.169Z,-1.54
2023-02-03T16:34:09.533Z,-1.43
2023-02-03T16:37:02.058Z,-1.43
2023-02-03T16:39:48.479Z,-1.40
2023-02-03T16:42:39.872Z,-1.38
2023-02-03T16:45:33.575Z,-1.39
2023-02-03T16:48:21.704Z,-1.33
2023-02-03T16:51:08.054Z,-1.34
2023-02-03T16:53:36.717Z,-1.34
2023-02-03T16:56:05.335Z,-1.30
2023-02-03T16:58:33.634Z,-1.30
2023-02-03T17:01:03.522Z,-1.29
2023-02-03T17:03:34.983Z,-1.37
2023-02-03T17:06:07.959Z,-1.38
2023-02-03T17:08:37.277Z,-1.34
2023-02-03T17:11:08.027Z,-1.31
2023-02-03T17:13:37.107Z,-1.23
2023-02-03T17:16:10.306Z,-1.26
2023-02-03T17:18:39.962Z,-1.21
2023-02-03T17:21:10.486Z,-1.23
2023-02-03T17:23:39.464Z,-1.22
2023-02-03T17:26:08.129Z,-1.17
2023-02-03T17:28:36.810Z,-1.16
2023-02-03T17:31:07.294Z,-1.20
2023-02-03T17:33:36.847Z,-1.19
2023-02-03T17:36:10.715Z,-1.16
2023-02-03T17:55:20.522Z,-1.08
2023-02-03T17:57:48.324Z,-1.10
2023-02-03T18:00:17.638Z,-1.00
2023-02-03T18:02:49.692Z,-1.01
2023-02-03T18:05:18.905Z,-1.01
2023-02-03T18:10:20.318Z,-1.01
2023-02-03T18:12:48.250Z,-0.98
2023-02-03T18:15:16.773Z,-1.04
2023-02-03T18:17:44.667Z,-1.04
2023-02-03T18:20:13.990Z,-1.03
2023-02-03T18:22:41.848Z,-0.96
2023-02-03T18:25:10.432Z,-0.97
2023-02-03T18:27:38.352Z,-0.97
2023-02-03T18:30:07.305Z,-0.91
2023-02-03T18:32:35.582Z,-0.97
2023-02-03T18:35:04.432Z,-0.98
2023-02-03T18:37:32.376Z,-0.92
2023-02-03T18:40:00.912Z,-0.97
2023-02-03T18:42:29.059Z,-0.92
2023-02-03T18:44:57.243Z,-0.96
2023-02-03T18:47:25.109Z,-0.94
2023-02-03T18:49:53.621Z,-0.98
2023-02-03T18:52:21.388Z,-1.00
2023-02-03T18:54:49.537Z,-1.13
2023-02-03T18:57:17.685Z,-1.01
2023-02-03T18:59:46.344Z,-1.05
2023-02-03T19:02:14.079Z,-0.99
2023-02-03T19:04:42.136Z,-1.03
2023-02-03T19:07:11.943Z,-1.00
2023-02-03T19:09:41.004Z,-1.03
2023-02-03T19:12:08.897Z,-0.99
2023-02-03T19:14:37.493Z,-1.03
2023-02-03T19:17:05.731Z,-0.97
2023-02-03T19:19:34.394Z,-1.01
2023-02-03T19:22:02.480Z,-1.02
2023-02-03T19:24:30.833Z,-1.07
2023-02-03T19:26:59.378Z,-1.05
2023-02-03T19:29:28.299Z,-1.04
2023-02-03T19:31:56.439Z,-1.06
2023-02-03T19:34:26.925Z,-1.02
2023-02-03T19:36:55.836Z,-1.09
2023-02-03T19:39:24.249Z,-1.08
2023-02-03T19:41:52.345Z,-1.04
2023-02-03T19:44:20.688Z,-0.99
2023-02-03T19:46:48.513Z,-0.97
2023-02-03T19:49:17.143Z,-0.94
2023-02-03T19:51:45.117Z,-0.96
2023-02-03T19:54:16.504Z,-0.95
2023-02-03T19:56:45.076Z,-0.98
2023-02-03T19:59:13.465Z,-1.00
2023-02-03T20:01:41.185Z,-0.99
2023-02-03T20:04:09.614Z,-1.01
2023-02-03T20:06:38.124Z,-1.02
2023-02-03T20:09:06.911Z,-1.14
2023-02-03T20:11:35.218Z,-1.08
2023-02-03T20:14:04.096Z,-1.04
2023-02-03T20:16:32.056Z,-1.08
2023-02-03T20:19:01.571Z,-1.04
2023-02-03T20:21:30.128Z,-1.02
2023-02-03T20:23:58.802Z,-1.08
2023-02-03T20:26:27.596Z,-1.14
2023-02-03T20:28:56.226Z,-1.09
2023-02-03T20:31:24.283Z,-1.04
2023-02-03T20:33:53.639Z,-1.02
2023-02-03T20:36:22.419Z,-1.06
2023-02-03T20:38:51.427Z,-1.12
2023-02-03T20:41:19.852Z,-1.06
2023-02-03T20:43:48.970Z,-1.14
2023-02-03T20:46:19.761Z,-1.17
2023-02-03T20:48:49.116Z,-1.10
2023-02-03T20:51:19.103Z,-1.19
2023-02-03T20:53:50.250Z,-1.12
2023-02-03T20:56:21.852Z,-1.16
2023-02-03T20:58:50.413Z,-1.21
2023-02-03T21:01:22.619Z,-1.24
2023-02-03T21:04:10.217Z,-1.17
2023-02-03T21:06:39.675Z,-1.27
2023-02-03T21:09:12.102Z,-1.32
2023-02-03T21:11:39.945Z,-1.33
2023-02-03T21:14:33.361Z,-1.29
2023-02-03T21:17:01.815Z,-1.25
2023-02-03T21:19:33.339Z,-1.18
2023-02-03T21:22:12.810Z,-1.17
2023-02-03T21:24:43.615Z,-1.23
2023-02-03T21:27:31.818Z,-1.18
2023-02-03T21:30:02.988Z,-1.34
2023-02-03T21:32:41.022Z,-1.33
2023-02-03T21:35:24.351Z,-1.43
2023-02-03T21:38:04.491Z,-1.31
2023-02-03T21:40:33.860Z,-1.30
2023-02-03T21:43:03.430Z,-1.37
2023-02-03T21:45:37.851Z,-1.37
2023-02-03T21:48:26.003Z,-1.43
2023-02-03T21:50:56.766Z,-1.35
2023-02-03T21:53:25.412Z,-1.33
2023-02-03T21:55:54.323Z,-1.38
2023-02-03T21:58:36.241Z,-1.38
2023-02-03T22:01:06.604Z,-1.34
2023-02-03T22:03:43.900Z,-1.46
2023-02-03T22:06:12.647Z,-1.38
2023-02-03T22:08:52.417Z,-1.40
2023-02-03T22:11:22.119Z,-1.49
2023-02-03T22:13:50.607Z,-1.48
2023-02-03T22:16:19.430Z,-1.57
2023-02-03T22:18:48.391Z,-1.48
2023-02-03T22:21:17.830Z,-1.48
2023-02-03T22:23:46.014Z,-1.52
2023-02-03T22:26:15.650Z,-1.50
2023-02-03T22:28:44.727Z,-1.64
2023-02-03T22:31:13.474Z,-1.62
2023-02-03T22:33:41.914Z,-1.47
2023-02-03T22:36:11.244Z,-1.56
2023-02-03T22:38:40.397Z,-1.71
2023-02-03T22:41:12.017Z,-1.76
2023-02-03T22:43:40.635Z,-1.79
2023-02-03T22:46:09.209Z,-1.70
2023-02-03T22:48:36.999Z,-1.72
2023-02-03T22:51:05.525Z,-1.67
2023-02-03T22:53:33.388Z,-1.68
2023-02-03T22:56:01.519Z,-1.80
2023-02-03T22:58:29.274Z,-1.84
2023-02-03T23:00:57.549Z,-1.87
2023-02-03T23:03:25.392Z,-1.91
2023-02-03T23:05:53.861Z,-1.76
2023-02-03T23:08:21.648Z,-1.85
2023-02-03T23:10:50.404Z,-1.93
2023-02-03T23:13:18.354Z,-1.96
2023-02-03T23:15:46.940Z,-1.97
2023-02-03T23:18:14.825Z,-1.96
2023-02-03T23:20:43.165Z,-2.00
2023-02-03T23:23:10.926Z,-2.01
2023-02-03T23:25:39.558Z,-2.03
2023-02-03T23:28:07.481Z,-2.11
2023-02-03T23:30:35.785Z,-2.08
2023-02-03T23:33:03.913Z,-2.11
2023-02-03T23:35:50.784Z,-2.12
2023-02-03T23:38:19.920Z,-2.20
2023-02-03T23:40:50.576Z,-2.11
2023-02-03T23:43:18.322Z,-2.15
2023-02-03T23:45:46.834Z,-2.06
2023-02-03T23:48:14.653Z,-2.11
2023-02-03T23:50:43.073Z,-2.08
2023-02-03T23:53:10.760Z,-2.13
2023-02-03T23:55:39.001Z,-2.27
2023-02-03T23:58:06.729Z,-2.16
